KIZG

Details ICAO KIZG
Name EASTERN SLOPES RGNL
Region United States
Timezone America/New_York (UTC-4.0)
Plans Departing 2
Arriving 4
Stats Elevation 454 ft / 138 m (AMSL)
Location 43.991036° -70.948400°
Runways 1
Magnetic Variation 15.107° W
Sunrise 2018-05-27 09:08:30 UTC / 2018-05-27 05:08:30 Local
Sunset 2018-05-28 00:16:19 UTC / 2018-05-27 20:16:19 Local
Advertisement - Login to hide

Runways

ID Width Length Bearing (true) Bearing (mag) Surface Threshold Offset Overrun Length
14 75 ft / 23 m 4,195 ft / 1,279 m 126.09° 141.20° Asphalt 0 ft / 0 m 0 ft / 0 m
32 75 ft / 23 m 4,195 ft / 1,279 m 306.10° 321.21° Asphalt 0 ft / 0 m 0 ft / 0 m

Map

Weather


0- 5 10 15 20 25 30 35+ Temperature / ° C

Clouds and Precipitation
Forecast for 2018-05-27 12:00 UTC. Updated an hour ago

Ground ~20,000 ft ~40,000 ft Winds

METAR

KIZG 271001Z AUTO 10006KT 10SM BKN024 OVC036 13/08 A3021 RMK AO2 T01280083

TAF

Not found

Frequencies

Recorded 135.77 MHz ASOS
Approach 125.50 MHz PORTLAND APP/DEP
Unicom 122.80 MHz CTAF/UNICOM
Warning: Do not use this data for real-world aviation or navigation. No guarantee of current accuracy is given.